Time;durP1;ratioP1;P1;durP2;ratioP2;P2;SDS_P1;SDS_P2;PMS_P1;PMS_P2;Temp;Humidity;BMP_temperature;BMP_pressure;BME280_temperature;BME280_humidity;BME280_pressure;Samples;Min_cycle;Max_cycle;Signal;HPM_P1;HPM_P2
2023/06/28 00:01:49;;;;;;;17.38;7.38;;;;;;;-144.87;100.00;61487.56;4966502;28;20043;-72
2023/06/28 00:04:15;;;;;;;13.13;7.00;;;;;;;-144.87;100.00;61487.56;4980038;28;20113;-71
2023/06/28 00:06:42;;;;;;;17.77;7.18;;;;;;;-144.87;100.00;61487.56;4952113;28;20081;-72
2023/06/28 00:09:08;;;;;;;11.30;7.05;;;;;;;-144.87;100.00;61487.56;4970696;28;20035;-71
2023/06/28 00:11:34;;;;;;;13.85;7.38;;;;;;;-144.87;100.00;61487.56;4971196;28;20118;-73
2023/06/28 00:14:01;;;;;;;16.52;8.43;;;;;;;-144.87;100.00;61487.56;4971515;28;20114;-73
2023/06/28 00:16:27;;;;;;;14.38;7.72;;;;;;;-144.87;100.00;61487.56;4972506;28;20034;-73
2023/06/28 00:18:58;;;;;;;14.35;7.57;;;;;;;-144.87;100.00;61487.56;4967968;28;20061;-73
2023/06/28 00:21:24;;;;;;;13.38;7.57;;;;;;;-144.87;100.00;61487.56;4971074;28;20482;-73
2023/06/28 00:23:50;;;;;;;14.82;6.55;;;;;;;-144.87;100.00;61487.56;4968995;28;20035;-73
2023/06/28 00:26:17;;;;;;;14.50;6.78;;;;;;;-144.87;100.00;61487.56;4970383;28;20038;-73
2023/06/28 00:28:43;;;;;;;12.40;6.10;;;;;;;-144.87;100.00;61487.56;4968581;28;20396;-73
2023/06/28 00:31:10;;;;;;;18.85;6.70;;;;;;;-144.87;100.00;61487.56;4970946;28;20034;-73
2023/06/28 00:33:37;;;;;;;12.13;5.90;;;;;;;-144.87;100.00;61487.56;4960484;28;20302;-73
2023/06/28 00:36:03;;;;;;;13.38;6.07;;;;;;;-144.87;100.00;61487.56;4953198;28;20125;-73
2023/06/28 00:38:29;;;;;;;14.35;6.65;;;;;;;-144.87;100.00;61487.56;4968300;28;20314;-73
2023/06/28 00:40:56;;;;;;;12.93;6.43;;;;;;;-144.87;100.00;61487.56;4969985;28;20046;-73
2023/06/28 00:43:22;;;;;;;11.40;6.20;;;;;;;-144.87;100.00;61487.56;4970680;28;20514;-73
2023/06/28 00:45:49;;;;;;;13.55;5.72;;;;;;;-144.87;100.00;61487.56;4963296;28;20501;-72
2023/06/28 00:48:17;;;;;;;13.43;6.25;;;;;;;-144.87;100.00;61487.56;4953860;28;20065;-72
2023/06/28 00:50:44;;;;;;;15.88;6.55;;;;;;;-144.87;100.00;61487.56;4970285;28;20113;-74
2023/06/28 00:53:15;;;;;;;10.48;6.20;;;;;;;-144.87;100.00;61487.56;4955376;28;20038;-74
2023/06/28 00:55:41;;;;;;;15.82;6.68;;;;;;;-144.87;100.00;61487.56;4969715;28;20054;-72
2023/06/28 00:58:08;;;;;;;12.00;6.63;;;;;;;-144.87;100.00;61487.56;4970942;28;20047;-72
2023/06/28 01:00:34;;;;;;;12.63;6.07;;;;;;;-144.87;100.00;61487.56;4955807;28;20432;-71
2023/06/28 01:03:00;;;;;;;9.90;6.28;;;;;;;-144.87;100.00;61487.56;4973965;28;20057;-72
2023/06/28 01:05:27;;;;;;;13.80;6.60;;;;;;;-144.87;100.00;61487.56;4987168;28;20042;-72
2023/06/28 01:07:55;;;;;;;17.45;6.65;;;;;;;-144.87;100.00;61487.56;4967540;28;20131;-73
2023/06/28 01:10:21;;;;;;;16.75;6.63;;;;;;;-144.87;100.00;61487.56;4968763;28;20042;-73
2023/06/28 01:12:48;;;;;;;11.18;6.43;;;;;;;-144.87;100.00;61487.56;4966350;28;20066;-73
2023/06/28 01:15:15;;;;;;;13.90;6.38;;;;;;;-144.87;100.00;61487.56;4968927;28;20045;-73
2023/06/28 01:17:41;;;;;;;11.13;6.47;;;;;;;-144.87;100.00;61487.56;4968283;28;20030;-73
2023/06/28 01:20:08;;;;;;;16.42;6.70;;;;;;;-144.87;100.00;61487.56;4983093;28;20034;-73
2023/06/28 01:22:40;;;;;;;16.75;6.30;;;;;;;-144.87;100.00;61487.56;4968445;28;20492;-73
2023/06/28 01:25:09;;;;;;;10.85;7.13;;;;;;;-144.87;100.00;61487.56;4952134;28;20125;-72
2023/06/28 01:27:37;;;;;;;10.23;6.38;;;;;;;-144.87;100.00;61487.56;4968547;28;20043;-72
2023/06/28 01:30:05;;;;;;;14.88;6.85;;;;;;;-144.87;100.00;61487.56;4967286;28;20045;-72
2023/06/28 01:32:32;;;;;;;17.60;7.53;;;;;;;-144.87;100.00;61487.56;4962261;28;20034;-72
2023/06/28 01:34:59;;;;;;;13.45;7.00;;;;;;;-144.87;100.00;61487.56;4969859;28;20038;-72
2023/06/28 01:37:25;;;;;;;15.93;6.20;;;;;;;-144.87;100.00;61487.56;4970727;28;20034;-73
2023/06/28 01:39:52;;;;;;;13.32;6.30;;;;;;;-144.87;100.00;61487.56;4953909;28;20034;-73
2023/06/28 01:42:19;;;;;;;11.68;5.80;;;;;;;-144.87;100.00;61487.56;4952594;28;20042;-72
2023/06/28 01:44:45;;;;;;;13.05;6.05;;;;;;;-144.87;100.00;61487.56;4949884;28;20097;-74
2023/06/28 01:47:11;;;;;;;12.88;6.03;;;;;;;-144.87;100.00;61487.56;4968625;28;20436;-72
2023/06/28 01:49:38;;;;;;;14.32;6.00;;;;;;;-144.87;100.00;61487.56;4927892;28;20090;-73
2023/06/28 01:52:06;;;;;;;11.02;5.50;;;;;;;-144.87;100.00;61487.56;4951849;28;20050;-73
2023/06/28 01:54:33;;;;;;;14.32;5.93;;;;;;;-144.87;100.00;61487.56;4966119;28;20058;-73
2023/06/28 01:56:59;;;;;;;13.63;5.43;;;;;;;-144.87;100.00;61487.56;4949785;28;20073;-73
2023/06/28 01:59:26;;;;;;;13.10;6.63;;;;;;;-144.87;100.00;61487.56;4950325;28;20122;-73
2023/06/28 02:01:52;;;;;;;9.50;5.25;;;;;;;-144.87;100.00;61487.56;4967324;28;20039;-72
2023/06/28 02:04:19;;;;;;;8.98;5.80;;;;;;;-144.87;100.00;61487.56;4967415;28;20058;-73
2023/06/28 02:06:46;;;;;;;12.98;5.90;;;;;;;-144.87;100.00;61487.56;4967910;28;20050;-72
2023/06/28 02:09:13;;;;;;;16.35;7.50;;;;;;;-144.87;100.00;61487.56;4966032;28;20539;-72
2023/06/28 02:11:39;;;;;;;14.25;6.35;;;;;;;-144.87;100.00;61487.56;4968008;28;20085;-73
2023/06/28 02:14:05;;;;;;;12.18;6.35;;;;;;;-144.87;100.00;61487.56;4951893;28;21873;-72
2023/06/28 02:16:31;;;;;;;16.80;5.80;;;;;;;-144.87;100.00;61487.56;4966975;28;20034;-72
2023/06/28 02:19:01;;;;;;;11.65;5.90;;;;;;;-144.87;100.00;61487.56;4964958;28;20039;-72
2023/06/28 02:21:27;;;;;;;11.68;6.30;;;;;;;-144.87;100.00;61487.56;4961185;28;20047;-73
2023/06/28 02:23:54;;;;;;;12.45;6.35;;;;;;;-144.87;100.00;61487.56;4966600;28;20090;-72
2023/06/28 02:26:20;;;;;;;14.82;6.55;;;;;;;-144.87;100.00;61487.56;4970033;28;20065;-73
2023/06/28 02:28:47;;;;;;;10.15;6.10;;;;;;;-144.87;100.00;61487.56;4949711;28;20063;-72
2023/06/28 02:31:18;;;;;;;12.75;6.60;;;;;;;-144.87;100.00;61487.56;4967394;28;20031;-73
2023/06/28 02:33:45;;;;;;;17.55;6.80;;;;;;;-144.87;100.00;61487.56;4966050;28;20121;-73
2023/06/28 02:36:13;;;;;;;15.45;7.07;;;;;;;-144.87;100.00;61487.56;4966635;28;20066;-73
2023/06/28 02:38:42;;;;;;;14.27;7.50;;;;;;;-144.87;100.00;61487.56;4957615;28;20027;-73
2023/06/28 02:41:09;;;;;;;12.18;6.95;;;;;;;-144.87;100.00;61487.56;4965654;28;20048;-73
2023/06/28 02:43:37;;;;;;;12.25;6.72;;;;;;;-144.87;100.00;61487.56;4945106;28;20035;-74
2023/06/28 02:46:04;;;;;;;10.52;6.53;;;;;;;-144.87;100.00;61487.56;4953364;28;20066;-74
2023/06/28 02:48:30;;;;;;;15.05;6.55;;;;;;;-144.87;100.00;61487.56;4950622;28;20445;-73
2023/06/28 02:50:57;;;;;;;16.45;6.82;;;;;;;-144.87;100.00;61487.56;4950861;28;20419;-75
2023/06/28 02:53:23;;;;;;;15.07;7.13;;;;;;;-144.87;100.00;61487.56;4966349;28;20039;-73
2023/06/28 02:55:49;;;;;;;14.25;6.97;;;;;;;-144.87;100.00;61487.56;4966274;28;20039;-73
2023/06/28 02:58:19;;;;;;;16.27;6.57;;;;;;;-144.87;100.00;61487.56;4966142;28;20492;-73
2023/06/28 03:00:47;;;;;;;12.52;6.22;;;;;;;-144.87;100.00;61487.56;4967218;28;20039;-72
2023/06/28 03:03:14;;;;;;;19.77;7.53;;;;;;;-144.87;100.00;61487.56;4965420;28;20053;-73
2023/06/28 03:05:42;;;;;;;14.30;6.57;;;;;;;-144.87;100.00;61487.56;4935857;28;20046;-72
2023/06/28 03:08:09;;;;;;;17.38;6.47;;;;;;;-144.87;100.00;61487.56;4950951;28;20077;-73
2023/06/28 03:10:36;;;;;;;13.85;7.18;;;;;;;-144.87;100.00;61487.56;4967109;28;20034;-73
2023/06/28 03:13:02;;;;;;;17.30;7.65;;;;;;;-144.87;100.00;61487.56;4968548;28;20105;-73
2023/06/28 03:15:29;;;;;;;18.92;7.95;;;;;;;-144.87;100.00;61487.56;4964907;28;20118;-72
2023/06/28 03:17:55;;;;;;;14.55;7.05;;;;;;;-144.87;100.00;61487.56;4965387;28;20065;-73
2023/06/28 03:20:22;;;;;;;16.35;8.38;;;;;;;-144.87;100.00;61487.56;4948957;28;20041;-73
2023/06/28 03:22:49;;;;;;;17.70;7.07;;;;;;;-144.87;100.00;61487.56;4965183;28;20043;-73
2023/06/28 03:25:16;;;;;;;16.40;6.90;;;;;;;-144.87;100.00;61487.56;4949262;28;20070;-73
2023/06/28 03:27:42;;;;;;;15.05;7.25;;;;;;;-144.87;100.00;61487.56;4947920;28;20047;-73
2023/06/28 03:30:09;;;;;;;19.20;8.93;;;;;;;-144.87;100.00;61487.56;4949515;28;20046;-73
2023/06/28 03:32:36;;;;;;;16.75;8.23;;;;;;;-144.87;100.00;61487.56;4962975;28;20066;-73
2023/06/28 03:35:02;;;;;;;25.10;9.20;;;;;;;-144.87;100.00;61487.56;4966439;28;20038;-73
2023/06/28 03:37:30;;;;;;;20.05;8.82;;;;;;;-144.87;100.00;61487.56;4951310;28;20038;-73
2023/06/28 03:39:57;;;;;;;22.20;10.68;;;;;;;-144.87;100.00;61487.56;4944946;28;20036;-73
2023/06/28 03:42:23;;;;;;;24.00;10.50;;;;;;;-144.87;100.00;61487.56;4967299;28;20049;-73
2023/06/28 03:44:49;;;;;;;16.88;9.77;;;;;;;-144.87;100.00;61487.56;4966165;28;20059;-74
2023/06/28 03:47:16;;;;;;;18.02;10.05;;;;;;;-144.87;100.00;61487.56;4970139;28;20046;-71
2023/06/28 03:49:42;;;;;;;22.90;10.70;;;;;;;-144.87;100.00;61487.56;4952354;28;20657;-73
2023/06/28 03:52:08;;;;;;;24.30;11.10;;;;;;;-144.87;100.00;61487.56;4950979;28;20035;-73
2023/06/28 03:54:35;;;;;;;22.88;11.38;;;;;;;-144.87;100.00;61487.56;4964451;28;20177;-72
2023/06/28 03:57:02;;;;;;;25.85;11.68;;;;;;;-144.87;100.00;61487.56;4970703;28;20039;-74
2023/06/28 03:59:28;;;;;;;25.67;12.38;;;;;;;-144.87;100.00;61487.56;4969584;28;20109;-73
2023/06/28 04:01:54;;;;;;;23.02;11.35;;;;;;;-144.87;100.00;61487.56;4969824;28;20030;-73
2023/06/28 04:04:21;;;;;;;27.88;12.85;;;;;;;-144.87;100.00;61487.56;4966784;28;21473;-73
2023/06/28 04:06:47;;;;;;;21.52;12.15;;;;;;;-144.87;100.00;61487.56;4970095;28;20031;-72
2023/06/28 04:09:15;;;;;;;29.23;13.20;;;;;;;-144.87;100.00;61487.56;4967403;28;20039;-74
2023/06/28 04:11:41;;;;;;;25.25;12.48;;;;;;;-144.87;100.00;61487.56;4970626;28;20042;-72
2023/06/28 04:14:08;;;;;;;24.48;12.18;;;;;;;-144.87;100.00;61487.56;4968095;28;20427;-72
2023/06/28 04:16:34;;;;;;;31.27;12.93;;;;;;;-144.87;100.00;61487.56;4970820;28;20034;-72
2023/06/28 04:19:00;;;;;;;28.98;12.85;;;;;;;-144.87;100.00;61487.56;4969999;28;20464;-72
2023/06/28 04:21:26;;;;;;;38.35;15.30;;;;;;;-144.87;100.00;61487.56;4971669;28;20039;-72
2023/06/28 04:24:12;;;;;;;31.15;13.18;;;;;;;-144.87;100.00;61487.56;4970749;28;20101;-71
2023/06/28 04:26:38;;;;;;;27.75;14.45;;;;;;;-144.87;100.00;61487.56;4968031;28;20615;-72
2023/06/28 04:29:04;;;;;;;30.20;13.70;;;;;;;-144.87;100.00;61487.56;4967686;28;20035;-72
2023/06/28 04:31:31;;;;;;;27.50;14.48;;;;;;;-144.87;100.00;61487.56;4971557;28;20424;-72
2023/06/28 04:33:57;;;;;;;34.35;14.52;;;;;;;-144.87;100.00;61487.56;4948737;28;20035;-73
2023/06/28 04:36:26;;;;;;;32.60;14.38;;;;;;;-144.87;100.00;61487.56;4969629;28;20109;-73
2023/06/28 04:38:54;;;;;;;31.33;15.10;;;;;;;-144.87;100.00;61487.56;4961992;28;20046;-73
2023/06/28 04:41:27;;;;;;;41.10;16.23;;;;;;;-144.87;100.00;61487.56;4971671;28;20369;-73
2023/06/28 04:43:55;;;;;;;40.63;15.27;;;;;;;-144.87;100.00;61487.56;4964071;28;20058;-73
2023/06/28 04:46:26;;;;;;;34.88;16.52;;;;;;;-144.87;100.00;61487.56;4965840;28;20034;-73
2023/06/28 04:48:53;;;;;;;31.95;15.45;;;;;;;-144.87;100.00;61487.56;4953020;28;20099;-73
2023/06/28 04:51:20;;;;;;;33.30;15.48;;;;;;;-144.87;100.00;61487.56;4952508;28;20103;-73
2023/06/28 04:53:47;;;;;;;31.15;15.48;;;;;;;-144.87;100.00;61487.56;4966059;28;20058;-73
2023/06/28 04:56:14;;;;;;;39.30;16.25;;;;;;;-144.87;100.00;61487.56;4968388;28;20121;-73
2023/06/28 04:58:41;;;;;;;48.33;17.73;;;;;;;-144.87;100.00;61487.56;4970133;28;20059;-73
2023/06/28 05:01:08;;;;;;;31.45;17.75;;;;;;;-144.87;100.00;61487.56;4967658;28;20114;-73
2023/06/28 05:03:35;;;;;;;37.15;16.75;;;;;;;-144.87;100.00;61487.56;4968743;28;20504;-73
2023/06/28 05:06:08;;;;;;;35.65;17.40;;;;;;;-144.87;100.00;61487.56;4966285;28;20034;-73
2023/06/28 05:08:35;;;;;;;34.55;17.60;;;;;;;-144.87;100.00;61487.56;4951275;28;20035;-74
2023/06/28 05:11:02;;;;;;;41.88;17.70;;;;;;;-144.87;100.00;61487.56;4971378;28;20552;-72
2023/06/28 05:13:28;;;;;;;35.03;17.88;;;;;;;-144.87;100.00;61487.56;4974906;28;20106;-72
2023/06/28 05:15:55;;;;;;;41.22;17.80;;;;;;;-144.87;100.00;61487.56;4967606;28;20069;-72
2023/06/28 05:18:22;;;;;;;39.58;17.15;;;;;;;-144.87;100.00;61487.56;4969325;28;20301;-73
2023/06/28 05:20:49;;;;;;;33.15;16.08;;;;;;;-144.87;100.00;61487.56;4967144;28;20042;-73
2023/06/28 05:23:23;;;;;;;44.03;18.05;;;;;;;-144.87;100.00;61487.56;4964647;28;20034;-72
2023/06/28 05:25:50;;;;;;;43.92;15.88;;;;;;;-144.87;100.00;61487.56;4969257;28;20049;-73
2023/06/28 05:28:16;;;;;;;37.88;17.25;;;;;;;-144.87;100.00;61487.56;4966254;28;20050;-73
2023/06/28 05:30:43;;;;;;;36.28;16.98;;;;;;;-144.87;100.00;61487.56;4961138;28;20109;-73
2023/06/28 05:33:10;;;;;;;53.33;19.20;;;;;;;-144.87;100.00;61487.56;4967986;28;20031;-72
2023/06/28 05:35:37;;;;;;;42.35;17.13;;;;;;;-144.87;100.00;61487.56;4963923;28;20054;-72
2023/06/28 05:38:05;;;;;;;37.53;17.17;;;;;;;-144.87;100.00;61487.56;4960139;28;20058;-72
2023/06/28 05:40:32;;;;;;;38.42;17.58;;;;;;;-144.87;100.00;61487.56;4949435;28;20097;-73
2023/06/28 05:42:59;;;;;;;41.78;18.15;;;;;;;-144.87;100.00;61487.56;4966879;28;20031;-73
2023/06/28 05:45:30;;;;;;;44.55;18.58;;;;;;;-144.87;100.00;61487.56;4964952;28;20058;-73
2023/06/28 05:47:57;;;;;;;;;;;;;;;-144.87;100.00;61487.56;4967489;28;20043;-74
2023/06/28 05:50:23;;;;;;;43.08;17.70;;;;;;;-144.87;100.00;61487.56;4965320;28;19926;-75
2023/06/28 05:52:50;;;;;;;40.50;18.65;;;;;;;-144.87;100.00;61487.56;4969633;28;20221;-73
2023/06/28 05:55:16;;;;;;;47.67;19.17;;;;;;;-144.87;100.00;61487.56;4964857;28;20456;-73
2023/06/28 05:57:43;;;;;;;44.92;18.35;;;;;;;-144.87;100.00;61487.56;4968932;28;20045;-72
2023/06/28 06:00:10;;;;;;;42.38;19.13;;;;;;;-144.87;100.00;61487.56;4963092;28;20042;-73
2023/06/28 06:02:37;;;;;;;41.33;19.85;;;;;;;-144.87;100.00;61487.56;4965350;28;20038;-74
2023/06/28 06:05:04;;;;;;;49.13;18.38;;;;;;;-144.87;100.00;61487.56;4967301;28;20121;-74
2023/06/28 06:07:34;;;;;;;47.65;18.77;;;;;;;-144.87;100.00;61487.56;4964808;28;20786;-73
2023/06/28 06:10:01;;;;;;;47.72;19.40;;;;;;;-144.87;100.00;61487.56;4981407;28;20031;-73
2023/06/28 06:12:28;;;;;;;48.13;17.85;;;;;;;-144.87;100.00;61487.56;4964002;28;20454;-73
2023/06/28 06:14:56;;;;;;;44.30;20.45;;;;;;;-144.87;100.00;61487.56;4962546;28;20419;-73
2023/06/28 06:17:23;;;;;;;42.75;18.98;;;;;;;-144.87;100.00;61487.56;4971037;28;20372;-73
2023/06/28 06:19:49;;;;;;;51.22;19.58;;;;;;;-144.87;100.00;61487.56;4967617;28;20055;-73
2023/06/28 06:22:15;;;;;;;47.58;20.92;;;;;;;-144.87;100.00;61487.56;4963831;28;20027;-72
2023/06/28 06:24:41;;;;;;;44.70;20.02;;;;;;;-144.87;100.00;61487.56;4964362;28;20034;-73
2023/06/28 06:27:08;;;;;;;53.13;21.38;;;;;;;-144.87;100.00;61487.56;4969906;28;20043;-72
2023/06/28 06:29:34;;;;;;;40.95;19.75;;;;;;;-144.87;100.00;61487.56;4968409;28;20050;-72
2023/06/28 06:32:01;;;;;;;48.78;20.38;;;;;;;-144.87;100.00;61487.56;4964153;28;20166;-72
2023/06/28 06:34:27;;;;;;;52.45;20.88;;;;;;;-144.87;100.00;61487.56;4962707;28;20035;-72
2023/06/28 06:36:56;;;;;;;46.33;19.77;;;;;;;-144.87;100.00;61487.56;4962109;28;20565;-73
2023/06/28 06:39:23;;;;;;;47.08;20.13;;;;;;;-144.87;100.00;61487.56;4967961;28;20031;-72
2023/06/28 06:41:49;;;;;;;53.83;20.42;;;;;;;-144.87;100.00;61487.56;4965076;28;20456;-73
2023/06/28 06:44:15;;;;;;;46.33;20.55;;;;;;;-144.87;100.00;61487.56;4957847;28;20054;-73
2023/06/28 06:46:42;;;;;;;45.42;21.52;;;;;;;-144.87;100.00;61487.56;4979599;28;20038;-72
2023/06/28 06:49:08;;;;;;;41.92;20.58;;;;;;;-144.87;100.00;61487.56;4967445;28;20500;-72
2023/06/28 06:51:34;;;;;;;40.53;20.13;;;;;;;-144.87;100.00;61487.56;4953561;28;20170;-73
2023/06/28 06:54:01;;;;;;;39.45;19.40;;;;;;;-144.87;100.00;61487.56;4969452;28;20031;-73
2023/06/28 06:56:27;;;;;;;42.97;19.85;;;;;;;-144.87;100.00;61487.56;4952269;28;20183;-72
2023/06/28 06:58:53;;;;;;;38.17;19.80;;;;;;;-144.87;100.00;61487.56;4968382;28;20057;-73
2023/06/28 07:01:19;;;;;;;40.67;18.85;;;;;;;-144.87;100.00;61487.56;4966908;28;20046;-73
2023/06/28 07:03:46;;;;;;;42.70;19.95;;;;;;;-144.87;100.00;61487.56;4966975;28;20424;-73
2023/06/28 07:06:12;;;;;;;41.72;19.10;;;;;;;-144.87;100.00;61487.56;4970940;28;20043;-72
2023/06/28 07:08:38;;;;;;;39.35;18.15;;;;;;;-144.87;100.00;61487.56;4967758;28;20108;-72
2023/06/28 07:11:05;;;;;;;38.88;19.27;;;;;;;-144.87;100.00;61487.56;4969356;28;20047;-72
2023/06/28 07:13:31;;;;;;;34.92;18.25;;;;;;;-144.87;100.00;61487.56;4969462;28;20070;-73
2023/06/28 07:15:57;;;;;;;43.63;18.33;;;;;;;-144.87;100.00;61487.56;4970473;28;20034;-72
2023/06/28 07:18:23;;;;;;;45.33;18.20;;;;;;;-144.87;100.00;61487.56;4973903;28;20050;-73
2023/06/28 07:20:50;;;;;;;38.40;18.15;;;;;;;-144.87;100.00;61487.56;4969866;28;20043;-72
2023/06/28 07:23:16;;;;;;;34.75;17.05;;;;;;;-144.87;100.00;61487.56;4955399;28;20043;-73
2023/06/28 07:25:42;;;;;;;43.97;18.13;;;;;;;-144.87;100.00;61487.56;4972016;28;20452;-72
2023/06/28 07:28:08;;;;;;;38.30;16.55;;;;;;;-144.87;100.00;61487.56;4971458;28;20045;-72
2023/06/28 07:30:55;;;;;;;35.15;16.05;;;;;;;-144.87;100.00;61487.56;4972182;28;20050;-72
2023/06/28 07:33:22;;;;;;;34.45;15.38;;;;;;;-144.87;100.00;61487.56;4973652;28;20046;-72
2023/06/28 07:35:52;;;;;;;35.15;15.40;;;;;;;-144.87;100.00;61487.56;4971645;28;20055;-72
2023/06/28 07:38:19;;;;;;;31.05;14.52;;;;;;;-144.87;100.00;61487.56;4973401;28;20043;-72
2023/06/28 07:40:46;;;;;;;28.90;15.02;;;;;;;-144.87;100.00;61487.56;4969349;28;20133;-71
2023/06/28 07:43:14;;;;;;;32.30;15.07;;;;;;;-144.87;100.00;61487.56;4973073;28;20038;-72
2023/06/28 07:45:40;;;;;;;23.88;14.75;;;;;;;-144.87;100.00;61487.56;4970494;28;20045;-72
2023/06/28 07:48:07;;;;;;;27.52;14.32;;;;;;;-144.87;100.00;61487.56;4952497;29;20027;-71
2023/06/28 07:50:34;;;;;;;27.35;14.85;;;;;;;-144.87;100.00;61487.56;4953278;29;20479;-71
2023/06/28 07:53:00;;;;;;;30.02;14.50;;;;;;;-144.87;100.00;61487.56;4953656;29;20409;-72
2023/06/28 07:55:30;;;;;;;28.50;14.60;;;;;;;-144.87;100.00;61487.56;4963362;28;20082;-72
2023/06/28 07:57:57;;;;;;;26.27;14.73;;;;;;;-144.87;100.00;61487.56;4978379;28;20034;-71
2023/06/28 08:00:26;;;;;;;30.25;15.82;;;;;;;-144.87;100.00;61487.56;4955039;28;20063;-73
2023/06/28 08:02:54;;;;;;;28.35;14.68;;;;;;;-144.87;100.00;61487.56;4974044;28;20420;-72
2023/06/28 08:05:20;;;;;;;25.58;15.00;;;;;;;-144.87;100.00;61487.56;4972410;28;20094;-71
2023/06/28 08:07:48;;;;;;;28.85;14.20;;;;;;;-144.87;100.00;61487.56;4971419;28;20432;-72
2023/06/28 08:10:15;;;;;;;31.30;14.98;;;;;;;-144.87;100.00;61487.56;4972374;28;20031;-71
2023/06/28 08:12:41;;;;;;;28.77;14.55;;;;;;;-144.87;100.00;61487.56;4972618;28;20409;-71
2023/06/28 08:15:08;;;;;;;30.00;13.02;;;;;;;-144.87;100.00;61487.56;4973797;28;20105;-71
2023/06/28 08:17:34;;;;;;;30.42;14.70;;;;;;;-144.87;100.00;61487.56;4970565;28;20050;-71
2023/06/28 08:20:00;;;;;;;26.40;13.63;;;;;;;-144.87;100.00;61487.56;4969645;28;20147;-72
2023/06/28 08:22:27;;;;;;;24.65;13.82;;;;;;;-144.87;100.00;61487.56;4981854;28;20042;-71
2023/06/28 08:24:53;;;;;;;24.45;12.95;;;;;;;-144.87;100.00;61487.56;4973607;28;20070;-73
2023/06/28 08:27:19;;;;;;;27.55;13.43;;;;;;;-144.87;100.00;61487.56;4969673;28;20035;-71
2023/06/28 08:29:45;;;;;;;25.70;12.30;;;;;;;-144.87;100.00;61487.56;4973164;28;20031;-72
2023/06/28 08:32:12;;;;;;;24.90;13.50;;;;;;;-144.87;100.00;61487.56;4972461;28;20061;-71
2023/06/28 08:34:38;;;;;;;24.67;12.45;;;;;;;-144.87;100.00;61487.56;4973502;28;20117;-72
2023/06/28 08:37:05;;;;;;;24.35;11.75;;;;;;;-144.87;100.00;61487.56;4956460;28;20038;-71
2023/06/28 08:39:31;;;;;;;23.63;13.07;;;;;;;-144.87;100.00;61487.56;4973182;28;20027;-71
2023/06/28 08:41:59;;;;;;;22.35;12.25;;;;;;;-144.87;100.00;61487.56;4970425;28;20046;-70
2023/06/28 08:44:26;;;;;;;20.20;11.88;;;;;;;-144.87;100.00;61487.56;4985358;28;20058;-71
2023/06/28 08:46:54;;;;;;;23.27;11.80;;;;;;;-144.87;100.00;61487.56;4962334;28;20464;-71
2023/06/28 08:49:20;;;;;;;21.63;11.75;;;;;;;-144.87;100.00;61487.56;4969019;28;20042;-71
2023/06/28 08:51:47;;;;;;;29.10;11.60;;;;;;;-144.87;100.00;61487.56;4960398;28;20039;-71
2023/06/28 08:54:14;;;;;;;26.52;12.57;;;;;;;-144.87;100.00;61487.56;4954784;28;20158;-71
2023/06/28 08:56:41;;;;;;;26.02;12.73;;;;;;;-144.87;100.00;61487.56;4973139;28;20123;-70
2023/06/28 08:59:09;;;;;;;25.25;12.18;;;;;;;-144.87;100.00;61487.56;4955241;28;20504;-71
2023/06/28 09:01:36;;;;;;;24.15;11.40;;;;;;;-144.87;100.00;61487.56;4969208;28;20077;-71
2023/06/28 09:04:05;;;;;;;25.25;11.82;;;;;;;-144.87;100.00;61487.56;4968882;28;20097;-71
2023/06/28 09:06:31;;;;;;;21.15;11.50;;;;;;;-144.87;100.00;61487.56;4971425;28;20170;-71
2023/06/28 09:08:57;;;;;;;19.10;11.10;;;;;;;-144.87;100.00;61487.56;4970838;28;20038;-72
2023/06/28 09:11:25;;;;;;;26.92;13.45;;;;;;;-144.87;100.00;61487.56;4971040;28;20047;-71
2023/06/28 09:13:51;;;;;;;25.52;11.02;;;;;;;-144.87;100.00;61487.56;4971954;28;20038;-71
2023/06/28 09:16:18;;;;;;;23.38;11.52;;;;;;;-144.87;100.00;61487.56;4938098;28;20035;-72
2023/06/28 09:18:44;;;;;;;26.73;12.65;;;;;;;-144.87;100.00;61487.56;4962269;28;20067;-72
2023/06/28 09:21:10;;;;;;;25.52;12.23;;;;;;;-144.87;100.00;61487.56;4954778;28;20396;-71
2023/06/28 09:23:37;;;;;;;26.10;12.75;;;;;;;-144.87;100.00;61487.56;4973007;28;20043;-71
2023/06/28 09:26:03;;;;;;;25.10;11.73;;;;;;;-144.87;100.00;61487.56;4968797;28;20047;-72
2023/06/28 09:28:34;;;;;;;21.77;11.85;;;;;;;-144.87;100.00;61487.56;4952006;28;20694;-72
2023/06/28 09:31:03;;;;;;;28.13;12.93;;;;;;;-144.87;100.00;61487.56;4953907;28;20090;-72
2023/06/28 09:33:30;;;;;;;26.02;11.50;;;;;;;-144.87;100.00;61487.56;4967728;28;20039;-71
2023/06/28 09:35:59;;;;;;;23.23;11.52;;;;;;;-144.87;100.00;61487.56;4945767;28;20046;-71
2023/06/28 09:38:26;;;;;;;25.52;12.20;;;;;;;-144.87;100.00;61487.56;4967391;28;20054;-70
2023/06/28 09:40:57;;;;;;;23.70;11.85;;;;;;;-144.87;100.00;61487.56;4948867;28;20431;-71
2023/06/28 09:43:23;;;;;;;28.05;13.02;;;;;;;-144.87;100.00;61487.56;4970225;28;20044;-72
2023/06/28 09:45:52;;;;;;;24.13;12.32;;;;;;;-144.87;100.00;61487.56;4971780;28;20039;-71
2023/06/28 09:48:24;;;;;;;23.90;11.70;;;;;;;-144.87;100.00;61487.56;4971144;28;20035;-72
2023/06/28 09:50:50;;;;;;;18.23;10.88;;;;;;;-144.87;100.00;61487.56;4955603;28;20039;-71
2023/06/28 09:53:21;;;;;;;29.10;12.80;;;;;;;-144.87;100.00;61487.56;4971474;28;20080;-72
2023/06/28 09:55:49;;;;;;;26.45;11.85;;;;;;;-144.87;100.00;61487.56;4968614;28;20043;-72
2023/06/28 09:58:20;;;;;;;24.65;11.70;;;;;;;-144.87;100.00;61487.56;4968404;28;20022;-70
2023/06/28 10:00:48;;;;;;;23.02;11.43;;;;;;;-144.87;100.00;61487.56;4969592;28;20050;-70
2023/06/28 10:03:16;;;;;;;24.65;11.80;;;;;;;-144.87;100.00;61487.56;4970443;28;20058;-70
2023/06/28 10:05:43;;;;;;;20.90;11.90;;;;;;;-144.87;100.00;61487.56;4972404;28;20090;-69
2023/06/28 10:08:15;;;;;;;23.20;11.98;;;;;;;-144.87;100.00;61487.56;4970002;28;20391;-71
2023/06/28 10:10:42;;;;;;;23.58;11.77;;;;;;;-144.87;100.00;61487.56;4970892;28;20038;-72
2023/06/28 10:13:21;;;;;;;22.92;12.30;;;;;;;-144.87;100.00;61487.56;4967278;28;20039;-72
2023/06/28 10:15:52;;;;;;;27.65;13.23;;;;;;;-144.87;100.00;61487.56;4941652;28;20100;-72
2023/06/28 10:18:19;;;;;;;23.90;12.85;;;;;;;-144.87;100.00;61487.56;4971486;28;20100;-72
2023/06/28 10:20:47;;;;;;;22.15;12.45;;;;;;;-144.87;100.00;61487.56;4950802;29;20027;-72
2023/06/28 10:23:13;;;;;;;24.08;13.82;;;;;;;-144.87;100.00;61487.56;4958018;28;20202;-72
2023/06/28 10:25:41;;;;;;;28.83;14.13;;;;;;;-144.87;100.00;61487.56;4966369;28;20118;-72
2023/06/28 10:28:08;;;;;;;31.02;14.90;;;;;;;-144.87;100.00;61487.56;4981972;28;20042;-71
2023/06/28 10:30:34;;;;;;;27.73;13.88;;;;;;;-144.87;100.00;61487.56;4970553;28;20046;-71
2023/06/28 10:33:01;;;;;;;32.60;15.45;;;;;;;-144.87;100.00;61487.56;4953094;28;20085;-71
2023/06/28 10:35:27;;;;;;;27.27;14.95;;;;;;;-144.87;100.00;61487.56;4965446;28;20027;-71
2023/06/28 10:37:57;;;;;;;29.85;15.20;;;;;;;-144.87;100.00;61487.56;4967855;28;20039;-72
2023/06/28 10:40:24;;;;;;;28.90;16.55;;;;;;;-144.87;100.00;61487.56;4952083;28;20035;-71
2023/06/28 10:42:51;;;;;;;30.48;17.15;;;;;;;-144.87;100.00;61487.56;4950520;28;20629;-71
2023/06/28 10:45:28;;;;;;;28.65;17.27;;;;;;;-144.87;100.00;61487.56;4960722;28;20399;-71
2023/06/28 10:47:57;;;;;;;34.00;17.48;;;;;;;-144.87;100.00;61487.56;4948224;29;20068;-71
2023/06/28 10:50:24;;;;;;;29.23;16.23;;;;;;;-144.87;100.00;61487.56;4966332;28;20076;-72
2023/06/28 10:52:55;;;;;;;27.33;15.80;;;;;;;-144.87;100.00;61487.56;4970352;28;20105;-71
2023/06/28 10:55:36;;;;;;;25.90;15.18;;;;;;;-144.87;100.00;61487.56;4969581;28;20035;-71
2023/06/28 10:58:11;;;;;;;27.25;16.67;;;;;;;-144.87;100.00;61487.56;4982672;28;20117;-72